sensor_id;sensor_type;location;lat;lon;timestamp;pressure;altitude;pressure_sealevel;temperature;humidity
16100;BME280;8154;50.830;12.082;2023-02-23T00:44:46;98984.97;;;25.95;31.98
16100;BME280;8154;50.830;12.082;2023-02-23T00:47:13;98994.50;;;25.91;32.21
16100;BME280;8154;50.830;12.082;2023-02-23T00:49:40;98996.50;;;25.77;32.43
16100;BME280;8154;50.830;12.082;2023-02-23T00:52:10;98985.13;;;25.81;32.04
16100;BME280;8154;50.830;12.082;2023-02-23T00:54:37;98985.84;;;25.88;31.92
16100;BME280;8154;50.830;12.082;2023-02-23T00:57:02;98991.22;;;25.88;32.04
16100;BME280;8154;50.830;12.082;2023-02-23T00:59:28;98987.56;;;25.83;32.00
16100;BME280;8154;50.830;12.082;2023-02-23T01:01:54;98987.56;;;25.83;31.85
16100;BME280;8154;50.830;12.082;2023-02-23T01:04:21;98987.75;;;25.88;31.80
16100;BME280;8154;50.830;12.082;2023-02-23T01:06:49;98990.84;;;25.85;31.99
16100;BME280;8154;50.830;12.082;2023-02-23T01:09:22;98984.34;;;25.74;31.86
16100;BME280;8154;50.830;12.082;2023-02-23T01:11:56;98977.00;;;25.70;32.20
16100;BME280;8154;50.830;12.082;2023-02-23T01:14:36;98976.19;;;25.69;31.95
16100;BME280;8154;50.830;12.082;2023-02-23T01:17:03;98970.63;;;25.71;32.07
16100;BME280;8154;50.830;12.082;2023-02-23T01:19:31;98979.78;;;25.81;31.79
16100;BME280;8154;50.830;12.082;2023-02-23T01:22:00;98988.81;;;25.80;32.00
16100;BME280;8154;50.830;12.082;2023-02-23T01:24:38;98981.09;;;25.72;31.78
16100;BME280;8154;50.830;12.082;2023-02-23T01:27:04;98980.50;;;25.70;32.13
16100;BME280;8154;50.830;12.082;2023-02-23T01:29:32;98975.09;;;25.77;31.56
16100;BME280;8154;50.830;12.082;2023-02-23T01:32:01;98981.69;;;25.74;31.90
16100;BME280;8154;50.830;12.082;2023-02-23T01:34:27;98982.41;;;25.63;31.92
16100;BME280;8154;50.830;12.082;2023-02-23T01:36:54;98973.94;;;25.66;31.93
16100;BME280;8154;50.830;12.082;2023-02-23T01:39:20;98973.28;;;25.71;31.64
16100;BME280;8154;50.830;12.082;2023-02-23T01:41:47;98979.00;;;25.74;31.60
16100;BME280;8154;50.830;12.082;2023-02-23T01:46:45;98973.34;;;25.64;31.82
16100;BME280;8154;50.830;12.082;2023-02-23T01:49:28;98973.66;;;25.74;31.50
16100;BME280;8154;50.830;12.082;2023-02-23T01:52:04;98971.41;;;25.71;31.75
16100;BME280;8154;50.830;12.082;2023-02-23T01:54:35;98967.41;;;25.62;31.69
16100;BME280;8154;50.830;12.082;2023-02-23T01:57:05;98967.19;;;25.64;31.79
16100;BME280;8154;50.830;12.082;2023-02-23T01:59:45;98963.59;;;25.70;31.74
16100;BME280;8154;50.830;12.082;2023-02-23T02:02:12;98966.72;;;25.67;31.52
16100;BME280;8154;50.830;12.082;2023-02-23T02:04:41;98959.81;;;25.59;31.55
16100;BME280;8154;50.830;12.082;2023-02-23T02:07:17;98952.16;;;25.63;31.64
16100;BME280;8154;50.830;12.082;2023-02-23T02:09:47;98956.03;;;25.67;31.78
16100;BME280;8154;50.830;12.082;2023-02-23T02:12:34;98955.41;;;25.65;31.32
16100;BME280;8154;50.830;12.082;2023-02-23T02:15:04;98948.72;;;25.56;31.78
16100;BME280;8154;50.830;12.082;2023-02-23T02:18:19;98939.28;;;25.53;31.71
16100;BME280;8154;50.830;12.082;2023-02-23T03:47:39;98960.66;;;25.35;31.36
16100;BME280;8154;50.830;12.082;2023-02-23T03:50:40;98957.19;;;25.28;31.57
16100;BME280;8154;50.830;12.082;2023-02-23T03:53:32;98962.91;;;25.38;31.11
16100;BME280;8154;50.830;12.082;2023-02-23T03:56:20;98961.41;;;25.42;31.26
16100;BME280;8154;50.830;12.082;2023-02-23T03:59:09;98953.09;;;25.26;31.29
16100;BME280;8154;50.830;12.082;2023-02-23T04:01:56;98952.72;;;25.22;31.41
16100;BME280;8154;50.830;12.082;2023-02-23T04:04:44;98951.09;;;25.21;31.55
16100;BME280;8154;50.830;12.082;2023-02-23T04:07:31;98958.00;;;25.29;31.33
16100;BME280;8154;50.830;12.082;2023-02-23T04:10:16;98959.63;;;25.36;31.16
16100;BME280;8154;50.830;12.082;2023-02-23T04:13:06;98952.22;;;25.38;31.13
16100;BME280;8154;50.830;12.082;2023-02-23T04:15:55;98962.25;;;25.43;31.17
16100;BME280;8154;50.830;12.082;2023-02-23T04:18:27;98966.63;;;25.31;30.88
16100;BME280;8154;50.830;12.082;2023-02-23T04:20:55;98967.50;;;25.25;31.23
16100;BME280;8154;50.830;12.082;2023-02-23T04:23:22;98965.41;;;25.33;31.16
16100;BME280;8154;50.830;12.082;2023-02-23T04:25:49;98963.34;;;25.35;30.89
16100;BME280;8154;50.830;12.082;2023-02-23T04:28:16;98965.66;;;25.25;30.99
16100;BME280;8154;50.830;12.082;2023-02-23T04:30:42;98970.03;;;25.20;31.02
16100;BME280;8154;50.830;12.082;2023-02-23T04:33:09;98971.16;;;25.30;31.09
16100;BME280;8154;50.830;12.082;2023-02-23T04:35:35;98970.75;;;25.33;31.10
16100;BME280;8154;50.830;12.082;2023-02-23T04:38:02;98969.19;;;25.19;31.11
16100;BME280;8154;50.830;12.082;2023-02-23T04:40:28;98970.91;;;25.14;31.21
16100;BME280;8154;50.830;12.082;2023-02-23T04:42:54;98976.63;;;25.17;30.97
16100;BME280;8154;50.830;12.082;2023-02-23T04:45:22;98977.19;;;25.26;30.87
16100;BME280;8154;50.830;12.082;2023-02-23T04:47:48;98974.75;;;25.18;31.07
16100;BME280;8154;50.830;12.082;2023-02-23T04:50:15;98972.53;;;25.15;31.18
16100;BME280;8154;50.830;12.082;2023-02-23T04:52:41;98979.06;;;25.19;31.14
16100;BME280;8154;50.830;12.082;2023-02-23T04:55:16;98983.53;;;25.25;31.08
16100;BME280;8154;50.830;12.082;2023-02-23T04:57:43;98985.56;;;25.29;30.84
16100;BME280;8154;50.830;12.082;2023-02-23T05:00:10;98986.16;;;25.31;30.78
16100;BME280;8154;50.830;12.082;2023-02-23T05:02:37;98988.75;;;25.20;30.76
16100;BME280;8154;50.830;12.082;2023-02-23T05:05:05;98990.03;;;25.11;31.08
16100;BME280;8154;50.830;12.082;2023-02-23T05:07:34;98987.31;;;25.17;30.79
16100;BME280;8154;50.830;12.082;2023-02-23T05:10:00;98985.84;;;25.21;31.06
16100;BME280;8154;50.830;12.082;2023-02-23T05:12:26;98982.41;;;25.14;30.76
16100;BME280;8154;50.830;12.082;2023-02-23T05:14:52;98988.44;;;25.03;31.29
16100;BME280;8154;50.830;12.082;2023-02-23T05:17:18;98988.63;;;25.08;31.02
16100;BME280;8154;50.830;12.082;2023-02-23T05:19:45;98988.13;;;25.18;30.74
16100;BME280;8154;50.830;12.082;2023-02-23T05:22:12;98990.84;;;25.11;31.09
16100;BME280;8154;50.830;12.082;2023-02-23T05:24:39;98986.16;;;25.07;31.19
16100;BME280;8154;50.830;12.082;2023-02-23T05:27:07;98988.19;;;25.11;30.86
16100;BME280;8154;50.830;12.082;2023-02-23T05:29:34;98985.69;;;25.16;30.70
16100;BME280;8154;50.830;12.082;2023-02-23T05:32:00;98986.94;;;25.14;30.81
16100;BME280;8154;50.830;12.082;2023-02-23T05:34:27;98981.69;;;25.01;31.23
16100;BME280;8154;50.830;12.082;2023-02-23T05:36:54;98997.50;;;25.02;30.91
16100;BME280;8154;50.830;12.082;2023-02-23T05:39:20;98986.34;;;25.12;30.72
16100;BME280;8154;50.830;12.082;2023-02-23T05:41:46;98987.31;;;25.17;30.68
16100;BME280;8154;50.830;12.082;2023-02-23T05:44:12;98989.97;;;25.17;30.54
16100;BME280;8154;50.830;12.082;2023-02-23T05:46:38;98988.53;;;25.21;30.61
16100;BME280;8154;50.830;12.082;2023-02-23T07:51:45;99060.78;;;24.77;30.72
16100;BME280;8154;50.830;12.082;2023-02-23T07:54:11;99057.50;;;24.75;31.02
16100;BME280;8154;50.830;12.082;2023-02-23T07:56:38;99056.28;;;24.71;31.01
16100;BME280;8154;50.830;12.082;2023-02-23T07:59:04;99051.59;;;24.67;30.94
16100;BME280;8154;50.830;12.082;2023-02-23T08:01:32;99056.28;;;24.65;31.20
16100;BME280;8154;50.830;12.082;2023-02-23T08:03:59;99052.41;;;24.67;30.83
16100;BME280;8154;50.830;12.082;2023-02-23T08:06:26;99066.38;;;24.69;30.91
16100;BME280;8154;50.830;12.082;2023-02-23T08:08:53;99057.34;;;24.70;31.04
16100;BME280;8154;50.830;12.082;2023-02-23T08:11:19;99062.91;;;24.69;31.01
16100;BME280;8154;50.830;12.082;2023-02-23T08:13:47;99061.63;;;24.65;30.91
16100;BME280;8154;50.830;12.082;2023-02-23T08:16:13;99061.88;;;24.57;31.05
16100;BME280;8154;50.830;12.082;2023-02-23T08:18:41;99060.00;;;24.64;31.08
16100;BME280;8154;50.830;12.082;2023-02-23T08:21:08;99060.81;;;24.64;31.18
16100;BME280;8154;50.830;12.082;2023-02-23T08:23:34;99052.63;;;24.66;31.03
16100;BME280;8154;50.830;12.082;2023-02-23T08:26:03;99059.59;;;24.67;31.03
16100;BME280;8154;50.830;12.082;2023-02-23T08:28:30;99060.81;;;24.64;31.13
16100;BME280;8154;50.830;12.082;2023-02-23T08:30:57;99059.38;;;24.62;31.19
16100;BME280;8154;50.830;12.082;2023-02-23T08:33:25;99057.53;;;24.62;30.78
16100;BME280;8154;50.830;12.082;2023-02-23T08:35:53;99050.13;;;24.64;31.13
16100;BME280;8154;50.830;12.082;2023-02-23T08:38:25;99053.44;;;24.66;30.86
16100;BME280;8154;50.830;12.082;2023-02-23T08:40:52;99055.31;;;24.66;30.80
16100;BME280;8154;50.830;12.082;2023-02-23T08:43:19;99056.09;;;24.66;30.68
16100;BME280;8154;50.830;12.082;2023-02-23T08:45:46;99052.63;;;24.66;30.96
16100;BME280;8154;50.830;12.082;2023-02-23T08:48:13;99048.47;;;24.63;31.03
16100;BME280;8154;50.830;12.082;2023-02-23T09:51:49;99061.75;;;24.89;30.46
16100;BME280;8154;50.830;12.082;2023-02-23T09:54:21;99051.66;;;24.91;30.22
16100;BME280;8154;50.830;12.082;2023-02-23T09:56:49;99062.97;;;24.93;30.29
16100;BME280;8154;50.830;12.082;2023-02-23T09:59:19;99054.97;;;24.87;30.59
16100;BME280;8154;50.830;12.082;2023-02-23T10:04:40;99065.66;;;24.93;30.39
16100;BME280;8154;50.830;12.082;2023-02-23T10:07:23;99060.50;;;24.92;30.34
16100;BME280;8154;50.830;12.082;2023-02-23T10:21:04;99075.50;;;24.93;30.05
16100;BME280;8154;50.830;12.082;2023-02-23T10:23:46;99065.66;;;24.87;30.31
16100;BME280;8154;50.830;12.082;2023-02-23T10:26:19;99075.16;;;24.83;30.37
16100;BME280;8154;50.830;12.082;2023-02-23T10:28:48;99068.53;;;24.92;30.13
16100;BME280;8154;50.830;12.082;2023-02-23T10:31:32;99071.00;;;24.93;30.00
16100;BME280;8154;50.830;12.082;2023-02-23T10:34:03;99065.88;;;24.85;30.23
16100;BME280;8154;50.830;12.082;2023-02-23T10:36:37;99063.84;;;24.81;30.44
16100;BME280;8154;50.830;12.082;2023-02-23T10:39:07;99065.66;;;24.87;30.06
16100;BME280;8154;50.830;12.082;2023-02-23T10:41:34;99060.94;;;24.89;30.12
16100;BME280;8154;50.830;12.082;2023-02-23T10:44:03;99062.00;;;24.81;30.32
16100;BME280;8154;50.830;12.082;2023-02-23T10:46:39;99058.94;;;24.78;30.34
16100;BME280;8154;50.830;12.082;2023-02-23T10:49:13;99054.00;;;24.81;30.18
16100;BME280;8154;50.830;12.082;2023-02-23T10:51:44;99057.03;;;24.85;30.43
16100;BME280;8154;50.830;12.082;2023-02-23T10:57:02;99048.44;;;24.83;30.30
16100;BME280;8154;50.830;12.082;2023-02-23T10:59:30;99054.22;;;24.73;30.55
16100;BME280;8154;50.830;12.082;2023-02-23T11:01:56;99054.88;;;24.69;30.51
16100;BME280;8154;50.830;12.082;2023-02-23T11:04:24;99048.69;;;24.75;30.29
16100;BME280;8154;50.830;12.082;2023-02-23T11:09:37;99043.88;;;24.83;30.08
16100;BME280;8154;50.830;12.082;2023-02-23T11:18:00;99030.81;;;24.69;30.46
16100;BME280;8154;50.830;12.082;2023-02-23T11:20:34;99030.97;;;24.74;30.34
16100;BME280;8154;50.830;12.082;2023-02-23T11:26:02;99038.38;;;24.78;30.07
16100;BME280;8154;50.830;12.082;2023-02-23T11:28:32;99026.28;;;24.69;30.30
16100;BME280;8154;50.830;12.082;2023-02-23T11:31:14;99030.00;;;24.62;30.40
16100;BME280;8154;50.830;12.082;2023-02-23T11:33:41;99030.59;;;24.70;30.63
16100;BME280;8154;50.830;12.082;2023-02-23T11:36:34;99026.91;;;24.71;30.52
16100;BME280;8154;50.830;12.082;2023-02-23T11:39:04;99017.63;;;24.74;30.47
16100;BME280;8154;50.830;12.082;2023-02-23T11:41:32;99016.59;;;24.75;30.36
16100;BME280;8154;50.830;12.082;2023-02-23T11:44:02;99014.34;;;24.65;30.64
16100;BME280;8154;50.830;12.082;2023-02-23T11:46:31;99015.84;;;24.61;30.67
16100;BME280;8154;50.830;12.082;2023-02-23T11:49:03;99014.78;;;24.69;30.52
16100;BME280;8154;50.830;12.082;2023-02-23T11:51:36;99011.91;;;24.70;30.46
16100;BME280;8154;50.830;12.082;2023-02-23T13:18:50;98976.22;;;24.52;30.37
16100;BME280;8154;50.830;12.082;2023-02-23T13:21:45;98970.66;;;24.53;30.42
16100;BME280;8154;50.830;12.082;2023-02-23T13:24:22;98966.81;;;24.43;30.47
16100;BME280;8154;50.830;12.082;2023-02-23T13:31:53;98973.97;;;24.49;30.36
16100;BME280;8154;50.830;12.082;2023-02-23T13:34:27;98971.28;;;24.49;30.29
16100;BME280;8154;50.830;12.082;2023-02-23T13:36:56;98972.09;;;24.49;30.30
16100;BME280;8154;50.830;12.082;2023-02-23T13:42:24;98976.41;;;24.50;30.50
16100;BME280;8154;50.830;12.082;2023-02-23T13:47:48;98972.38;;;24.41;30.40
16100;BME280;8154;50.830;12.082;2023-02-23T13:50:34;98964.50;;;24.46;30.36
16100;BME280;8154;50.830;12.082;2023-02-23T13:53:05;98968.00;;;24.47;30.41
16100;BME280;8154;50.830;12.082;2023-02-23T13:55:35;98964.28;;;24.48;30.20
16100;BME280;8154;50.830;12.082;2023-02-23T13:58:12;98962.44;;;24.48;30.46
16100;BME280;8154;50.830;12.082;2023-02-23T14:00:43;98959.78;;;24.48;30.49
16100;BME280;8154;50.830;12.082;2023-02-23T14:03:24;98960.03;;;24.40;30.33
16100;BME280;8154;50.830;12.082;2023-02-23T14:05:56;98961.91;;;24.33;30.69
16100;BME280;8154;50.830;12.082;2023-02-23T14:08:36;98955.94;;;24.38;30.37
16100;BME280;8154;50.830;12.082;2023-02-23T14:11:05;98970.50;;;24.42;30.61
16100;BME280;8154;50.830;12.082;2023-02-23T16:13:26;98976.78;;;24.16;30.24
16100;BME280;8154;50.830;12.082;2023-02-23T16:15:54;98973.50;;;24.14;30.56
16100;BME280;8154;50.830;12.082;2023-02-23T16:18:50;98969.78;;;24.15;30.70
16100;BME280;8154;50.830;12.082;2023-02-23T16:21:23;98971.66;;;24.14;30.61
16100;BME280;8154;50.830;12.082;2023-02-23T16:23:52;98971.47;;;24.09;30.55
16100;BME280;8154;50.830;12.082;2023-02-23T16:26:25;98973.31;;;24.02;30.70
16100;BME280;8154;50.830;12.082;2023-02-23T16:28:56;98966.53;;;24.06;30.32
16100;BME280;8154;50.830;12.082;2023-02-23T16:34:20;98970.63;;;24.09;30.48
16100;BME280;8154;50.830;12.082;2023-02-23T16:36:53;98967.16;;;24.08;30.17
16100;BME280;8154;50.830;12.082;2023-02-23T16:39:20;98969.84;;;24.08;30.44
16100;BME280;8154;50.830;12.082;2023-02-23T16:41:48;98971.25;;;24.11;30.49
16100;BME280;8154;50.830;12.082;2023-02-23T16:44:18;98969.00;;;24.08;30.61
16100;BME280;8154;50.830;12.082;2023-02-23T16:49:28;98966.94;;;24.10;30.50
16100;BME280;8154;50.830;12.082;2023-02-23T16:51:56;98973.91;;;24.11;30.45
16100;BME280;8154;50.830;12.082;2023-02-23T16:54:23;98971.47;;;24.09;30.33
16100;BME280;8154;50.830;12.082;2023-02-23T16:56:50;98968.78;;;24.09;30.45
16100;BME280;8154;50.830;12.082;2023-02-23T16:59:21;98969.84;;;24.02;30.56
16100;BME280;8154;50.830;12.082;2023-02-23T17:01:57;98977.66;;;24.03;30.51
16100;BME280;8154;50.830;12.082;2023-02-23T17:04:23;98975.59;;;24.05;30.45
16100;BME280;8154;50.830;12.082;2023-02-23T17:06:50;98972.72;;;24.07;30.15
16100;BME280;8154;50.830;12.082;2023-02-23T17:09:23;98967.38;;;24.07;30.39
16100;BME280;8154;50.830;12.082;2023-02-23T17:11:50;98971.06;;;24.06;30.36
16100;BME280;8154;50.830;12.082;2023-02-23T17:14:23;98976.38;;;24.06;30.16
16100;BME280;8154;50.830;12.082;2023-02-23T17:16:50;98970.03;;;24.07;30.37
16100;BME280;8154;50.830;12.082;2023-02-23T17:19:16;98977.63;;;24.10;30.35
16100;BME280;8154;50.830;12.082;2023-02-23T17:21:45;98975.38;;;24.07;30.23
16100;BME280;8154;50.830;12.082;2023-02-23T17:24:11;98976.78;;;24.09;30.40
16100;BME280;8154;50.830;12.082;2023-02-23T17:26:37;98978.63;;;24.09;30.14
16100;BME280;8154;50.830;12.082;2023-02-23T17:29:04;98977.00;;;24.08;30.31
16100;BME280;8154;50.830;12.082;2023-02-23T17:31:30;98978.63;;;24.09;30.31
16100;BME280;8154;50.830;12.082;2023-02-23T17:33:56;98980.13;;;23.98;30.48
16100;BME280;8154;50.830;12.082;2023-02-23T17:36:23;98980.72;;;23.94;30.56
16100;BME280;8154;50.830;12.082;2023-02-23T17:38:54;98976.63;;;23.98;30.37
16100;BME280;8154;50.830;12.082;2023-02-23T17:41:24;98977.44;;;23.98;30.55
16100;BME280;8154;50.830;12.082;2023-02-23T17:43:51;98991.81;;;24.04;30.21
16100;BME280;8154;50.830;12.082;2023-02-23T17:46:17;98984.81;;;24.03;30.22
16100;BME280;8154;50.830;12.082;2023-02-23T17:48:44;98980.53;;;24.02;30.16
16100;BME280;8154;50.830;12.082;2023-02-23T17:51:13;98977.84;;;24.02;30.19
16100;BME280;8154;50.830;12.082;2023-02-23T17:53:42;98975.00;;;23.97;30.20
16100;BME280;8154;50.830;12.082;2023-02-23T17:56:08;98981.97;;;23.91;30.63
16100;BME280;8154;50.830;12.082;2023-02-23T17:58:35;98971.09;;;23.93;30.41
16100;BME280;8154;50.830;12.082;2023-02-23T18:01:03;98968.19;;;23.94;30.45
16100;BME280;8154;50.830;12.082;2023-02-23T18:03:32;98975.59;;;23.99;30.48
16100;BME280;8154;50.830;12.082;2023-02-23T18:06:03;98975.38;;;23.94;30.46
16100;BME280;8154;50.830;12.082;2023-02-23T18:08:30;98971.06;;;23.99;30.45
16100;BME280;8154;50.830;12.082;2023-02-23T18:10:57;98972.94;;;23.99;30.29
16100;BME280;8154;50.830;12.082;2023-02-23T18:13:24;98980.50;;;23.95;30.63
16100;BME280;8154;50.830;12.082;2023-02-23T19:17:12;98958.56;;;23.87;30.28
16100;BME280;8154;50.830;12.082;2023-02-23T19:19:38;98959.38;;;23.87;30.40
16100;BME280;8154;50.830;12.082;2023-02-23T19:22:04;98959.38;;;23.87;30.31
16100;BME280;8154;50.830;12.082;2023-02-23T19:24:31;98956.72;;;23.87;30.24
16100;BME280;8154;50.830;12.082;2023-02-23T19:26:57;98953.81;;;23.89;30.18
16100;BME280;8154;50.830;12.082;2023-02-23T19:29:23;98951.38;;;23.87;30.36
16100;BME280;8154;50.830;12.082;2023-02-23T19:31:50;98948.28;;;23.90;30.34
16100;BME280;8154;50.830;12.082;2023-02-23T19:34:16;98948.28;;;23.90;30.22
16100;BME280;8154;50.830;12.082;2023-02-23T19:36:42;98949.94;;;23.91;30.10
16100;BME280;8154;50.830;12.082;2023-02-23T19:39:11;98943.56;;;23.92;30.11
16100;BME280;8154;50.830;12.082;2023-02-23T19:41:42;98951.78;;;23.91;30.07
16100;BME280;8154;50.830;12.082;2023-02-23T19:44:09;98955.69;;;23.88;30.30
16100;BME280;8154;50.830;12.082;2023-02-23T19:46:35;98946.44;;;23.91;30.23
16100;BME280;8154;50.830;12.082;2023-02-23T19:49:03;98942.72;;;23.92;30.04
16100;BME280;8154;50.830;12.082;2023-02-23T19:51:29;98948.50;;;23.89;30.04
16100;BME280;8154;50.830;12.082;2023-02-23T19:53:57;98941.53;;;23.81;30.40
16100;BME280;8154;50.830;12.082;2023-02-23T19:56:24;98939.91;;;23.74;30.35
16100;BME280;8154;50.830;12.082;2023-02-23T19:58:58;98949.56;;;23.75;30.46
16100;BME280;8154;50.830;12.082;2023-02-23T20:01:24;98949.75;;;23.80;30.47
16100;BME280;8154;50.830;12.082;2023-02-23T20:03:53;98947.91;;;23.80;30.58
16100;BME280;8154;50.830;12.082;2023-02-23T20:06:29;98947.69;;;23.82;30.39
16100;BME280;8154;50.830;12.082;2023-02-23T20:08:57;98946.03;;;23.81;30.29
16100;BME280;8154;50.830;12.082;2023-02-23T20:11:25;98952.22;;;23.81;30.12
16100;BME280;8154;50.830;12.082;2023-02-23T20:13:52;98950.59;;;23.80;30.18
16100;BME280;8154;50.830;12.082;2023-02-23T20:16:19;98948.94;;;23.79;30.01
16100;BME280;8154;50.830;12.082;2023-02-23T20:18:45;98946.03;;;23.81;30.41
16100;BME280;8154;50.830;12.082;2023-02-23T20:21:19;98946.03;;;23.81;30.38
16100;BME280;8154;50.830;12.082;2023-02-23T20:23:49;98952.00;;;23.83;30.32
16100;BME280;8154;50.830;12.082;2023-02-23T20:26:22;98949.75;;;23.80;30.16
16100;BME280;8154;50.830;12.082;2023-02-23T20:28:53;98957.13;;;23.78;30.34
16100;BME280;8154;50.830;12.082;2023-02-23T23:20:01;98919.84;;;23.58;30.29
16100;BME280;8154;50.830;12.082;2023-02-23T23:22:35;98919.44;;;23.55;30.13
16100;BME280;8154;50.830;12.082;2023-02-23T23:25:01;98917.38;;;23.57;30.11
16100;BME280;8154;50.830;12.082;2023-02-23T23:27:27;98915.75;;;23.56;30.08
16100;BME280;8154;50.830;12.082;2023-02-23T23:29:54;98914.09;;;23.55;30.21
16100;BME280;8154;50.830;12.082;2023-02-23T23:32:20;98916.97;;;23.53;30.17
16100;BME280;8154;50.830;12.082;2023-02-23T23:34:52;98913.31;;;23.54;30.04
16100;BME280;8154;50.830;12.082;2023-02-23T23:37:21;98914.50;;;23.58;30.00
16100;BME280;8154;50.830;12.082;2023-02-23T23:39:47;98910.63;;;23.54;30.08
16100;BME280;8154;50.830;12.082;2023-02-23T23:42:23;98913.69;;;23.58;30.01
16100;BME280;8154;50.830;12.082;2023-02-23T23:44:50;98907.56;;;23.57;30.26
16100;BME280;8154;50.830;12.082;2023-02-23T23:47:16;98908.75;;;23.55;30.25
16100;BME280;8154;50.830;12.082;2023-02-23T23:49:43;98906.31;;;23.53;30.06
16100;BME280;8154;50.830;12.082;2023-02-23T23:52:10;98906.31;;;23.53;30.33
16100;BME280;8154;50.830;12.082;2023-02-23T23:54:42;98896.88;;;23.51;30.26
16100;BME280;8154;50.830;12.082;2023-02-23T23:57:09;98896.88;;;23.51;30.22
16100;BME280;8154;50.830;12.082;2023-02-23T23:59:36;98898.09;;;23.55;30.03
